Time;durP1;ratioP1;P1;durP2;ratioP2;P2;SDS_P1;SDS_P2;PMS_P1;PMS_P2;Temp;Humidity;BMP_temperature;BMP_pressure;BME280_temperature;BME280_humidity;BME280_pressure;Samples;Min_cycle;Max_cycle;Signal;HPM_P1;HPM_P2
2021/07/04 00:00:28;;;;;;;14.55;10.68;;;;;;;15.98;72.49;99917.13;2127497;82;21516;-71
2021/07/04 00:03:29;;;;;;;13.05;9.15;;;;;;;15.91;72.32;99915.80;2130013;82;21041;-71
2021/07/04 00:06:31;;;;;;;14.83;9.78;;;;;;;15.82;72.25;99917.01;2131932;82;21035;-70
2021/07/04 00:09:32;;;;;;;16.42;10.53;;;;;;;15.79;72.51;99916.09;2121988;82;21495;-71
2021/07/04 00:12:33;;;;;;;18.37;9.90;;;;;;;15.73;72.57;99921.74;2127992;82;21056;-71
2021/07/04 00:15:40;;;;;;;14.38;9.78;;;;;;;15.66;72.42;99920.38;2125898;82;21105;-71
2021/07/04 00:18:41;;;;;;;14.93;9.60;;;;;;;15.61;72.39;99922.02;2130508;82;21120;-71
2021/07/04 00:21:45;;;;;;;15.45;9.93;;;;;;;15.54;72.44;99914.49;2129051;82;22006;-71
2021/07/04 00:24:47;;;;;;;11.97;9.33;;;;;;;15.47;72.36;99919.84;2125571;82;21520;-70
2021/07/04 00:27:49;;;;;;;13.10;9.75;;;;;;;15.37;72.33;99917.58;2125073;82;21095;-71
2021/07/04 00:30:52;;;;;;;13.38;8.93;;;;;;;15.31;72.50;99917.03;2124024;81;21060;-71
2021/07/04 00:33:53;;;;;;;16.42;10.53;;;;;;;15.20;72.90;99917.13;2131269;81;21065;-71
2021/07/04 00:36:55;;;;;;;12.78;7.97;;;;;;;15.06;73.33;99916.75;2126334;81;21599;-72
2021/07/04 00:39:56;;;;;;;8.50;7.58;;;;;;;15.01;73.38;99913.88;2135299;81;20971;-71
2021/07/04 00:42:58;;;;;;;12.45;8.55;;;;;;;14.92;73.25;99911.91;2130242;82;21590;-71
2021/07/04 00:46:00;;;;;;;14.93;9.28;;;;;;;14.86;73.09;99911.34;2127753;82;21093;-71
2021/07/04 00:49:02;;;;;;;53.08;10.72;;;;;;;14.84;72.84;99912.56;2125290;82;21116;-73
2021/07/04 00:52:04;;;;;;;18.40;9.80;;;;;;;14.76;73.27;99909.05;2123565;82;21600;-73
2021/07/04 00:55:08;;;;;;;13.15;9.55;;;;;;;14.65;73.75;99905.62;2133542;81;21117;-71
2021/07/04 00:58:11;;;;;;;13.28;9.08;;;;;;;14.53;73.89;99905.36;2130420;82;21350;-70
2021/07/04 01:01:13;;;;;;;12.90;8.88;;;;;;;14.44;73.70;99900.33;2131586;82;21062;-71
2021/07/04 01:04:16;;;;;;;12.37;9.40;;;;;;;14.35;73.58;99897.81;2133125;82;22130;-70
2021/07/04 01:07:18;;;;;;;14.75;9.03;;;;;;;14.30;73.72;99890.94;2129580;81;21108;-71
2021/07/04 01:10:23;;;;;;;13.30;9.58;;;;;;;14.24;73.56;99904.22;2128996;81;20990;-71
2021/07/04 01:13:27;;;;;;;20.82;8.30;;;;;;;14.18;73.74;99897.82;2125612;82;21037;-70
2021/07/04 01:16:31;;;;;;;11.10;8.30;;;;;;;14.15;73.38;99894.21;2124593;82;21013;-70
2021/07/04 01:19:34;;;;;;;12.85;8.58;;;;;;;14.10;73.44;99900.13;2128395;81;21034;-71
2021/07/04 01:22:39;;;;;;;14.00;8.30;;;;;;;14.10;73.72;99896.63;2132904;82;21072;-71
2021/07/04 01:25:46;;;;;;;15.10;8.45;;;;;;;14.06;73.35;99899.39;2136610;81;21787;-71
2021/07/04 01:28:48;;;;;;;12.70;9.13;;;;;;;13.97;73.30;99901.38;2127348;82;21577;-71
2021/07/04 01:31:51;;;;;;;16.15;9.00;;;;;;;13.92;73.62;99900.31;2129904;81;21019;-72
2021/07/04 01:34:52;;;;;;;21.60;9.40;;;;;;;13.89;73.38;99901.01;2134727;82;21120;-71
2021/07/04 01:37:54;;;;;;;16.95;8.75;;;;;;;13.76;73.36;99898.23;2072488;83;21053;-71
2021/07/04 01:40:58;;;;;;;10.63;8.03;;;;;;;13.72;73.43;99904.16;2091249;84;21075;-72
2021/07/04 01:44:01;;;;;;;14.55;9.38;;;;;;;13.69;73.61;99904.03;2091350;84;21029;-71
2021/07/04 01:47:03;;;;;;;17.45;7.55;;;;;;;13.64;73.49;99897.94;2077945;84;21053;-71
2021/07/04 01:50:12;;;;;;;10.68;8.43;;;;;;;13.64;73.53;99903.78;2122231;82;20986;-70
2021/07/04 01:53:19;;;;;;;12.60;7.70;;;;;;;13.60;73.47;99905.16;2119246;82;21062;-71
2021/07/04 01:56:22;;;;;;;11.63;8.50;;;;;;;13.56;73.57;99911.91;2120271;81;21007;-71
2021/07/04 01:59:27;;;;;;;7.90;6.78;;;;;;;13.50;74.03;99910.83;2120519;82;21050;-71
2021/07/04 02:02:39;;;;;;;11.22;7.65;;;;;;;13.24;73.81;99896.71;2120755;81;21019;-70
2021/07/04 02:05:42;;;;;;;10.58;7.72;;;;;;;13.24;73.81;99896.71;2099915;82;21021;-72
2021/07/04 02:08:47;;;;;;;7.75;6.08;;;;;;;13.30;73.61;99913.30;2121807;82;21051;-70
2021/07/04 02:11:49;;;;;;;11.68;9.70;;;;;;;13.27;73.80;99906.20;2119029;82;21057;-71
2021/07/04 02:14:52;;;;;;;10.65;9.53;;;;;;;13.25;74.27;99902.34;2123811;81;21491;-71
2021/07/04 02:17:59;;;;;;;12.80;8.48;;;;;;;13.21;74.43;99903.75;2117169;82;22388;-71
2021/07/04 02:21:05;;;;;;;39.20;8.33;;;;;;;13.20;74.36;99903.41;2118743;82;21092;-71
2021/07/04 02:24:08;;;;;;;9.70;7.25;;;;;;;13.10;74.39;99897.59;2122844;82;21003;-70
2021/07/04 02:27:11;;;;;;;10.58;7.78;;;;;;;12.99;74.18;99899.72;2121606;82;21007;-71
2021/07/04 02:30:17;;;;;;;11.03;7.83;;;;;;;12.95;74.02;99900.27;2117792;82;21027;-71
2021/07/04 02:33:21;;;;;;;8.85;6.67;;;;;;;12.87;73.97;99902.55;2118621;82;21621;-71
2021/07/04 02:36:23;;;;;;;10.48;7.22;;;;;;;12.78;73.93;99904.98;2115363;82;21067;-74
2021/07/04 02:39:26;;;;;;;10.88;6.42;;;;;;;12.72;74.23;99909.22;2120006;82;21070;-71
2021/07/04 02:42:30;;;;;;;9.95;6.08;;;;;;;12.67;74.22;99899.66;2112284;82;21015;-72
2021/07/04 02:45:32;;;;;;;7.65;5.85;;;;;;;12.64;74.18;99908.49;2115861;82;21038;-74
2021/07/04 02:48:36;;;;;;;9.15;5.92;;;;;;;12.60;74.22;99904.05;2113418;82;21034;-73
2021/07/04 02:51:37;;;;;;;7.33;5.83;;;;;;;12.59;74.13;99912.23;2116221;82;21043;-72
2021/07/04 02:54:39;;;;;;;11.30;8.70;;;;;;;12.60;74.26;99912.55;2114891;82;21011;-72
2021/07/04 02:57:50;;;;;;;16.25;7.83;;;;;;;12.56;74.67;99912.92;2116050;82;21038;-72
2021/07/04 03:00:53;;;;;;;10.93;7.58;;;;;;;12.55;74.58;99915.24;2118498;82;21101;-71
2021/07/04 03:03:55;;;;;;;11.43;7.95;;;;;;;12.51;74.46;99915.30;2118980;82;21112;-72
2021/07/04 03:07:00;;;;;;;12.30;7.37;;;;;;;12.49;74.49;99918.64;2117335;82;21011;-71
2021/07/04 03:10:04;;;;;;;18.10;7.05;;;;;;;12.43;74.32;99918.56;2118287;82;21094;-71
2021/07/04 03:13:08;;;;;;;9.03;7.90;;;;;;;12.39;74.38;99915.45;2118404;82;21039;-74
2021/07/04 03:16:11;;;;;;;11.50;8.90;;;;;;;12.42;74.41;99916.41;2112901;82;21027;-71
2021/07/04 03:19:14;;;;;;;6.92;6.22;;;;;;;12.39;74.38;99919.45;2118878;82;21054;-74
2021/07/04 03:22:16;;;;;;;7.35;5.90;;;;;;;12.37;74.78;99922.78;2116387;82;21026;-72
2021/07/04 03:25:19;;;;;;;9.40;6.28;;;;;;;12.41;74.72;99924.56;2118249;82;21019;-72
2021/07/04 03:28:22;;;;;;;11.97;6.70;;;;;;;12.40;74.72;99925.59;2111551;81;21137;-71
2021/07/04 03:31:26;;;;;;;11.73;7.00;;;;;;;12.44;74.73;99919.70;2113801;82;21015;-72
2021/07/04 03:34:27;;;;;;;18.73;7.58;;;;;;;12.46;74.72;99921.67;2116160;81;21002;-75
2021/07/04 03:37:29;;;;;;;10.78;6.30;;;;;;;12.53;74.86;99922.61;2113143;82;20991;-72
2021/07/04 03:40:31;;;;;;;9.63;6.17;;;;;;;12.54;75.19;99921.59;2112252;81;21062;-72
2021/07/04 03:43:34;;;;;;;7.30;5.33;;;;;;;12.55;75.31;99925.89;2115867;82;21086;-71
2021/07/04 03:46:36;;;;;;;7.45;5.92;;;;;;;12.58;74.99;99929.20;2114092;81;21122;-72
2021/07/04 03:49:38;;;;;;;15.18;8.40;;;;;;;12.67;75.09;99922.76;2112445;82;21073;-71
2021/07/04 03:52:42;;;;;;;12.23;8.30;;;;;;;12.66;75.29;99926.45;2118898;82;21015;-71
2021/07/04 03:55:45;;;;;;;8.03;6.75;;;;;;;12.62;75.32;99940.63;2117223;82;21429;-74
2021/07/04 03:58:49;;;;;;;11.03;7.92;;;;;;;12.89;75.68;99935.13;2112230;81;21152;-72
2021/07/04 04:01:52;;;;;;;10.35;6.60;;;;;;;13.36;75.96;99937.03;2064563;84;21039;-72
2021/07/04 04:04:56;;;;;;;9.15;7.72;;;;;;;13.90;75.75;99930.66;2060726;84;21163;-72
2021/07/04 04:08:00;;;;;;;13.08;7.83;;;;;;;14.42;75.55;99925.91;2052744;84;21060;-72
2021/07/04 04:11:04;;;;;;;16.67;8.33;;;;;;;14.99;75.14;99932.77;2115039;82;21089;-72
2021/07/04 04:14:06;;;;;;;8.60;7.25;;;;;;;15.54;74.62;99931.87;2114565;82;21034;-73
2021/07/04 04:17:09;;;;;;;8.25;7.45;;;;;;;15.94;73.69;99934.11;2113599;82;21120;-72
2021/07/04 04:20:13;;;;;;;11.55;8.80;;;;;;;16.26;73.57;99931.61;2115900;82;21070;-72
2021/07/04 04:23:16;;;;;;;11.10;8.88;;;;;;;16.69;72.95;99929.75;2116223;82;21959;-72
2021/07/04 04:26:23;;;;;;;13.68;9.93;;;;;;;17.12;72.50;99928.69;2114959;82;21046;-72
2021/07/04 04:29:24;;;;;;;12.50;8.83;;;;;;;17.56;72.15;99931.51;2114512;82;21644;-73
2021/07/04 04:32:27;;;;;;;15.10;9.38;;;;;;;17.96;71.56;99936.07;2120555;82;21051;-74
2021/07/04 04:35:29;;;;;;;14.13;9.38;;;;;;;18.49;71.17;99922.66;2118371;82;20986;-73
2021/07/04 04:38:31;;;;;;;14.18;8.70;;;;;;;18.72;69.71;99923.34;2119545;82;21029;-73
2021/07/04 04:41:35;;;;;;;11.60;8.55;;;;;;;18.64;69.04;99920.45;2115737;82;21098;-72
2021/07/04 04:44:37;;;;;;;11.85;9.93;;;;;;;18.71;69.38;99919.83;2118354;82;21090;-72
2021/07/04 04:47:38;;;;;;;12.15;10.60;;;;;;;18.95;69.47;99925.36;2121399;82;21057;-73
2021/07/04 04:50:40;;;;;;;11.68;10.13;;;;;;;19.34;68.93;99917.80;2115852;82;20995;-72
2021/07/04 04:53:41;;;;;;;11.83;9.35;;;;;;;19.66;68.98;99932.67;2115228;82;21520;-73
2021/07/04 04:56:43;;;;;;;12.18;10.00;;;;;;;20.31;68.33;99932.32;2117224;82;21003;-72
2021/07/04 04:59:46;;;;;;;13.55;9.85;;;;;;;20.71;67.74;99932.94;2115427;83;21061;-73
2021/07/04 05:02:48;;;;;;;11.28;10.03;;;;;;;21.27;67.11;99938.09;2114684;82;20982;-73
2021/07/04 05:05:53;;;;;;;14.00;9.98;;;;;;;21.74;66.21;99936.53;2118089;82;20983;-72
2021/07/04 05:08:55;;;;;;;12.15;10.00;;;;;;;22.06;65.48;99934.06;2116340;82;21066;-72
2021/07/04 05:11:56;;;;;;;12.68;9.75;;;;;;;22.47;64.91;99924.39;2114519;82;21375;-73
2021/07/04 05:14:59;;;;;;;13.25;9.95;;;;;;;22.86;63.63;99925.16;2122851;82;21529;-73
2021/07/04 05:18:05;;;;;;;14.40;10.32;;;;;;;23.14;63.76;99920.64;2117608;82;20979;-73
2021/07/04 05:21:07;;;;;;;11.05;9.95;;;;;;;23.60;62.48;99925.98;2115593;82;21864;-72
2021/07/04 05:24:11;;;;;;;12.33;10.15;;;;;;;23.74;61.98;99924.21;2122327;82;21054;-73
2021/07/04 05:27:13;;;;;;;14.20;10.10;;;;;;;23.92;61.37;99931.41;2116894;82;21048;-73
2021/07/04 05:30:15;;;;;;;13.20;10.35;;;;;;;24.22;60.69;99929.20;2082103;84;21054;-72
2021/07/04 05:33:17;;;;;;;12.07;8.88;;;;;;;24.42;60.02;99923.08;2081016;83;21549;-72
2021/07/04 05:36:19;;;;;;;11.28;10.03;;;;;;;24.63;59.05;99921.30;2082381;84;21134;-72
2021/07/04 05:39:26;;;;;;;13.38;9.75;;;;;;;24.72;58.58;99919.70;2079204;84;21109;-72
2021/07/04 05:42:26;;;;;;;15.70;9.98;;;;;;;24.94;58.10;99921.69;2083929;84;21429;-72
2021/07/04 05:45:27;;;;;;;13.18;8.65;;;;;;;25.07;57.72;99915.50;2078353;84;21033;-71
2021/07/04 05:48:29;;;;;;;11.33;8.80;;;;;;;25.37;57.27;99921.03;2081856;84;21120;-72
2021/07/04 05:51:31;;;;;;;10.72;8.53;;;;;;;25.62;56.14;99916.69;2080859;83;21118;-72
2021/07/04 05:54:32;;;;;;;11.75;9.08;;;;;;;25.91;55.81;99919.17;2080297;84;20992;-72
2021/07/04 05:57:34;;;;;;;13.22;9.70;;;;;;;26.23;55.39;99920.75;2081872;83;21011;-73
2021/07/04 06:00:36;;;;;;;12.05;9.20;;;;;;;26.36;54.50;99922.90;2077918;84;22492;-71
2021/07/04 06:03:38;;;;;;;8.78;7.70;;;;;;;26.64;54.09;99924.75;2080598;84;21049;-71
2021/07/04 06:06:39;;;;;;;7.72;6.92;;;;;;;26.61;53.16;99929.39;2079488;84;21082;-71
2021/07/04 06:09:41;;;;;;;9.58;7.55;;;;;;;26.58;52.59;99923.95;2081553;84;21746;-72
2021/07/04 06:12:44;;;;;;;8.65;6.70;;;;;;;26.64;52.12;99917.95;2078300;84;22383;-71
2021/07/04 06:15:46;;;;;;;8.20;6.37;;;;;;;26.74;51.77;99915.72;2080261;83;21074;-71
2021/07/04 06:18:48;;;;;;;8.60;6.20;;;;;;;26.95;50.92;99916.45;2082148;83;21117;-71
2021/07/04 06:21:49;;;;;;;6.87;6.03;;;;;;;27.15;49.91;99914.97;2079999;83;21099;-70
2021/07/04 06:24:51;;;;;;;6.72;5.50;;;;;;;27.20;49.54;99908.17;2080367;83;20999;-72
2021/07/04 06:27:56;;;;;;;5.87;3.60;;;;;;;27.43;49.27;99904.48;2084090;83;21076;-71
2021/07/04 06:30:57;;;;;;;6.15;4.62;;;;;;;27.50;47.84;99914.48;2112891;82;21012;-71
2021/07/04 06:33:59;;;;;;;7.92;5.80;;;;;;;27.69;47.47;99909.97;2111667;82;21000;-70
2021/07/04 06:37:04;;;;;;;7.53;6.10;;;;;;;27.91;47.06;99915.55;2111069;82;21646;-71
2021/07/04 06:40:07;;;;;;;6.20;5.25;;;;;;;28.17;46.54;99913.38;2109608;82;21009;-71
2021/07/04 06:43:09;;;;;;;8.60;5.35;;;;;;;28.08;46.41;99909.11;2111781;82;21107;-87
2021/07/04 06:46:11;;;;;;;9.60;6.22;;;;;;;28.39;46.31;99899.23;2110901;82;21048;-74
2021/07/04 06:49:12;;;;;;;6.65;5.60;;;;;;;28.64;45.91;99902.80;2115216;82;20973;-74
2021/07/04 06:52:14;;;;;;;8.53;5.78;;;;;;;28.69;45.54;99909.02;2110640;82;21479;-74
2021/07/04 06:55:17;;;;;;;7.28;5.65;;;;;;;28.88;44.93;99900.02;2111080;82;21016;-76
2021/07/04 06:58:18;;;;;;;7.20;5.65;;;;;;;28.96;44.56;99902.91;2110765;82;21055;-80
2021/07/04 07:01:20;;;;;;;7.15;5.72;;;;;;;28.98;43.92;99902.63;2107374;82;21660;-78
2021/07/04 07:04:22;;;;;;;7.45;5.37;;;;;;;28.96;43.90;99900.17;2109764;82;21029;-76
2021/07/04 07:07:26;;;;;;;7.42;5.90;;;;;;;28.97;43.37;99899.06;2106689;82;22438;-75
2021/07/04 07:10:27;;;;;;;7.35;5.70;;;;;;;29.06;43.47;99895.17;2111668;82;21048;-74
2021/07/04 07:13:29;;;;;;;8.08;6.25;;;;;;;29.23;43.17;99891.36;2109838;82;20987;-75
2021/07/04 07:16:31;;;;;;;8.33;4.72;;;;;;;29.42;43.15;99888.58;2109434;83;21555;-73
2021/07/04 07:19:33;;;;;;;13.05;5.20;;;;;;;29.36;42.81;99886.24;2106122;82;21044;-74
2021/07/04 07:22:36;;;;;;;9.93;5.65;;;;;;;29.35;42.20;99892.27;2114924;82;20982;-74
2021/07/04 07:25:39;;;;;;;7.45;5.20;;;;;;;29.33;42.20;99893.11;2111652;83;21473;-74
2021/07/04 07:28:40;;;;;;;5.58;4.97;;;;;;;29.53;42.40;99891.16;2116239;82;21007;-74
2021/07/04 07:31:47;;;;;;;11.70;5.37;;;;;;;30.25;42.28;99884.74;2123778;82;21161;-71
2021/07/04 07:34:48;;;;;;;32.35;6.58;;;;;;;30.25;42.28;99884.74;2124617;82;21060;-73
2021/07/04 07:37:51;;;;;;;5.87;5.28;;;;;;;30.46;41.28;99885.13;2127491;82;21062;-72
2021/07/04 07:40:56;;;;;;;5.95;5.22;;;;;;;30.51;41.46;99879.55;2118714;82;21022;-72
2021/07/04 07:43:58;;;;;;;5.67;4.80;;;;;;;30.46;40.34;99878.85;2125111;82;21072;-72
2021/07/04 07:47:00;;;;;;;7.62;6.03;;;;;;;30.56;40.39;99877.28;2123482;82;21486;-72
2021/07/04 07:50:02;;;;;;;6.15;5.53;;;;;;;30.59;40.22;99872.00;2122805;82;21554;-73
2021/07/04 07:53:04;;;;;;;7.70;6.12;;;;;;;30.73;40.28;99871.98;2121657;82;21116;-72
2021/07/04 07:56:05;;;;;;;7.83;5.80;;;;;;;30.78;39.58;99874.61;2121992;82;21013;-73
2021/07/04 07:59:09;;;;;;;6.62;5.35;;;;;;;30.65;39.81;99872.70;2121945;82;21066;-73
2021/07/04 08:02:10;;;;;;;5.75;5.25;;;;;;;30.71;39.63;99877.51;2126111;82;21051;-74
2021/07/04 08:05:12;;;;;;;7.92;5.42;;;;;;;30.76;39.37;99869.99;2115627;82;21049;-71
2021/07/04 08:08:13;;;;;;;7.08;5.22;;;;;;;30.84;39.16;99858.11;2116843;82;21556;-74
2021/07/04 08:11:15;;;;;;;6.87;4.70;;;;;;;30.98;39.10;99856.14;2124612;82;21007;-72
2021/07/04 08:14:18;;;;;;;6.03;5.10;;;;;;;30.82;38.04;99862.51;2120568;81;20993;-72
2021/07/04 08:17:21;;;;;;;6.87;5.25;;;;;;;30.79;38.47;99856.25;2121335;81;21022;-73
2021/07/04 08:20:26;;;;;;;6.33;4.70;;;;;;;30.84;37.99;99850.70;2121465;82;21033;-73
2021/07/04 08:23:27;;;;;;;5.97;5.25;;;;;;;30.87;37.70;99860.23;2120403;82;21116;-74
2021/07/04 08:26:29;;;;;;;5.60;4.75;;;;;;;31.04;36.92;99849.41;2126163;81;21096;-74
2021/07/04 08:29:31;;;;;;;6.30;5.30;;;;;;;30.98;36.71;99846.55;2122005;82;20991;-73
2021/07/04 08:32:32;;;;;;;6.05;4.65;;;;;;;30.99;36.79;99846.79;2121078;82;21085;-73
2021/07/04 08:35:36;;;;;;;5.17;4.67;;;;;;;31.06;36.36;99844.44;2123006;82;21018;-74
2021/07/04 08:38:37;;;;;;;8.83;5.05;;;;;;;30.51;35.96;99846.70;2126853;82;21399;-74
2021/07/04 08:41:39;;;;;;;6.37;4.70;;;;;;;30.41;36.43;99846.94;2123023;82;21510;-74
2021/07/04 08:44:57;;;;;;;6.78;5.05;;;;;;;30.52;36.20;99840.14;2121330;81;21360;-72
2021/07/04 08:47:59;;;;;;;5.20;4.80;;;;;;;30.90;36.83;99837.69;2122918;81;20984;-72
2021/07/04 08:51:01;;;;;;;7.83;4.87;;;;;;;31.10;36.33;99838.58;2120533;82;21025;-71
2021/07/04 08:54:03;;;;;;;5.75;4.97;;;;;;;31.29;36.23;99838.97;2122505;81;21058;-71
2021/07/04 08:57:08;;;;;;;6.55;5.08;;;;;;;30.80;35.86;99838.19;2123847;82;21066;-71
2021/07/04 09:00:13;;;;;;;6.80;5.45;;;;;;;30.16;36.22;99834.55;2126686;81;21014;-71
2021/07/04 09:03:28;;;;;;;6.85;5.17;;;;;;;29.63;36.89;99828.97;2123212;81;21165;-70
2021/07/04 09:06:49;;;;;;;8.65;4.92;;;;;;;29.79;35.55;99832.78;2118492;82;21010;-73
2021/07/04 09:10:06;;;;;;;6.03;4.75;;;;;;;30.01;36.66;99830.73;2117464;81;22225;-73
2021/07/04 09:13:25;;;;;;;4.65;4.25;;;;;;;30.00;36.13;99818.99;2120727;82;21026;-72
2021/07/04 09:16:27;;;;;;;5.17;4.67;;;;;;;30.29;35.74;99835.12;2120878;82;21031;-70
2021/07/04 09:19:29;;;;;;;7.00;5.22;;;;;;;29.81;35.73;99827.83;2119638;82;21048;-76
2021/07/04 09:22:40;;;;;;;5.72;5.22;;;;;;;29.54;36.14;99829.91;2123013;82;21103;-71
2021/07/04 09:25:41;;;;;;;5.30;4.80;;;;;;;29.50;36.54;99807.28;2126659;82;21521;-73
2021/07/04 09:28:44;;;;;;;4.97;4.12;;;;;;;29.86;36.94;99820.34;2127686;82;21031;-71
2021/07/04 09:31:45;;;;;;;6.70;4.87;;;;;;;30.05;36.29;99823.56;2121134;82;21127;-74
2021/07/04 09:35:10;;;;;;;5.08;4.58;;;;;;;30.38;35.63;99818.26;2122188;82;21014;-76
2021/07/04 09:38:17;;;;;;;5.20;4.70;;;;;;;30.45;35.34;99815.09;2121718;82;21039;-77
2021/07/04 09:41:19;;;;;;;6.70;4.70;;;;;;;30.82;35.27;99809.91;2119191;82;21061;-73
2021/07/04 09:44:25;;;;;;;5.62;4.20;;;;;;;31.20;35.08;99808.20;2120508;82;21076;-76
2021/07/04 09:47:29;;;;;;;7.45;4.80;;;;;;;31.37;34.70;99810.28;2126463;82;21072;-79
2021/07/04 09:50:39;;;;;;;5.10;4.60;;;;;;;31.07;33.97;99804.16;2123707;82;21472;-77
2021/07/04 09:53:50;;;;;;;4.92;4.22;;;;;;;30.72;34.44;99804.66;2119681;82;21502;-75
2021/07/04 09:57:05;;;;;;;5.53;4.25;;;;;;;30.28;34.70;99802.04;2116477;81;21026;-75
2021/07/04 10:00:15;;;;;;;6.22;4.42;;;;;;;29.79;35.19;99793.97;2122549;81;21121;-76
2021/07/04 10:03:21;;;;;;;6.03;4.70;;;;;;;29.48;35.54;99795.87;2125811;82;21006;-77
2021/07/04 10:06:22;;;;;;;4.80;4.40;;;;;;;29.39;35.74;99797.64;2121891;81;21026;-76
2021/07/04 10:09:31;;;;;;;6.67;4.80;;;;;;;29.10;35.67;99796.50;2122085;82;21046;-76
2021/07/04 10:12:30;;;;;;;7.00;5.15;;;;;;;29.10;35.67;99796.50;2121713;82;21093;-76
2021/07/04 10:15:32;;;;;;;6.53;4.50;;;;;;;28.69;36.26;99790.80;2122053;82;21667;-75
2021/07/04 10:18:33;;;;;;;5.30;4.80;;;;;;;28.28;36.81;99795.44;2121860;82;21678;-75
2021/07/04 10:21:37;;;;;;;5.00;4.50;;;;;;;27.33;36.89;99792.86;2121019;82;21013;-76
2021/07/04 10:24:39;;;;;;;6.80;5.55;;;;;;;26.62;38.26;99800.41;2125675;82;21621;-76
2021/07/04 10:27:40;;;;;;;6.12;5.53;;;;;;;26.39;39.32;99791.79;2121187;82;21069;-73
2021/07/04 10:30:44;;;;;;;12.45;5.90;;;;;;;25.93;39.74;99794.70;2119182;81;21569;-67
2021/07/04 10:33:50;;;;;;;5.95;5.45;;;;;;;25.88;40.50;99793.34;2095665;82;21006;-81
2021/07/04 10:37:03;;;;;;;6.40;5.00;;;;;;;25.91;40.39;99794.15;2115797;82;21117;-72
2021/07/04 10:40:15;;;;;;;7.17;5.53;;;;;;;25.87;40.52;99786.27;2088664;82;21526;-81
2021/07/04 10:43:54;;;;;;;7.35;5.30;;;;;;;25.90;41.20;99785.73;2117971;81;21734;-72
2021/07/04 10:47:04;;;;;;;6.58;5.20;;;;;;;25.80;41.22;99780.84;2093590;82;21101;-71
2021/07/04 10:50:10;;;;;;;6.95;5.75;;;;;;;25.62;41.74;99780.86;2120529;81;21014;-69
2021/07/04 10:53:34;;;;;;;13.22;6.15;;;;;;;25.55;41.99;99786.58;2118271;81;21117;-70
2021/07/04 10:56:40;;;;;;;7.75;5.60;;;;;;;25.42;42.09;99782.51;2117326;81;21584;-69
2021/07/04 11:00:05;;;;;;;7.00;5.83;;;;;;;25.17;42.60;99781.16;2119616;81;20998;-69
2021/07/04 11:03:12;;;;;;;7.70;5.50;;;;;;;24.98;42.80;99778.16;2119227;81;21576;-68
2021/07/04 11:06:14;;;;;;;7.87;5.60;;;;;;;24.94;43.20;99772.98;2115811;81;21066;-69
2021/07/04 11:09:16;;;;;;;6.10;5.50;;;;;;;24.83;43.49;99772.98;2120716;81;21149;-66
2021/07/04 11:12:34;;;;;;;6.30;5.70;;;;;;;24.74;43.30;99764.28;2118964;81;21681;-69
2021/07/04 11:15:39;;;;;;;7.47;5.75;;;;;;;24.72;43.45;99761.85;2121031;82;21152;-67
2021/07/04 11:18:51;;;;;;;7.08;6.35;;;;;;;24.62;44.05;99761.82;2117169;82;21659;-69
2021/07/04 11:21:58;;;;;;;7.78;5.95;;;;;;;24.62;44.55;99750.97;2120372;81;21576;-71
2021/07/04 11:25:18;;;;;;;6.33;5.37;;;;;;;24.61;44.62;99757.48;2116653;82;21037;-71
2021/07/04 11:28:23;;;;;;;6.00;5.42;;;;;;;24.66;44.54;99763.45;2120846;81;21092;-69
2021/07/04 11:31:28;;;;;;;6.40;5.72;;;;;;;24.74;44.64;99758.85;2120669;82;21093;-68
2021/07/04 11:34:31;;;;;;;6.75;5.15;;;;;;;24.88;45.07;99759.95;2123122;82;21101;-86
2021/07/04 11:37:38;;;;;;;9.33;6.10;;;;;;;25.07;44.79;99754.00;2120320;82;21001;-78
2021/07/04 11:40:41;;;;;;;6.33;5.62;;;;;;;25.20;44.83;99754.83;2125298;82;21505;-78
2021/07/04 11:43:44;;;;;;;8.90;5.87;;;;;;;25.26;44.64;99752.41;2122344;81;21009;-77
2021/07/04 11:46:52;;;;;;;6.12;5.53;;;;;;;25.29;44.52;99758.64;2125709;82;21627;-75
2021/07/04 11:49:54;;;;;;;10.80;5.65;;;;;;;25.23;44.20;99754.31;2121004;81;21616;-72
2021/07/04 11:53:06;;;;;;;6.47;5.30;;;;;;;25.08;44.80;99740.15;2104050;82;21069;-70
2021/07/04 11:56:07;;;;;;;7.72;5.33;;;;;;;25.25;44.54;99743.97;2120113;82;21569;-70
2021/07/04 11:59:17;;;;;;;10.23;6.25;;;;;;;25.46;44.26;99742.87;2127404;82;21253;-72
2021/07/04 12:02:19;;;;;;;6.33;5.33;;;;;;;25.53;44.53;99737.69;2122917;82;21074;-73
2021/07/04 12:05:21;;;;;;;5.05;4.55;;;;;;;25.71;44.21;99733.05;2122811;81;21458;-71
2021/07/04 12:08:24;;;;;;;6.97;5.00;;;;;;;25.88;43.96;99726.77;2119993;82;21081;-79
2021/07/04 12:11:50;;;;;;;9.35;4.92;;;;;;;25.99;43.90;99716.67;2069129;84;21015;-75
2021/07/04 12:15:06;;;;;;;6.72;5.20;;;;;;;26.13;43.75;99719.60;2123034;82;21081;-82
2021/07/04 12:18:15;;;;;;;6.08;4.83;;;;;;;25.98;41.91;99716.38;2123371;81;21038;-78
2021/07/04 12:21:16;;;;;;;5.95;5.45;;;;;;;26.25;43.02;99713.83;2124598;81;21449;-81
2021/07/04 12:24:18;;;;;;;4.85;4.17;;;;;;;26.70;42.64;99709.22;2121447;82;21038;-71
2021/07/04 12:27:39;;;;;;;6.12;5.08;;;;;;;26.92;41.30;99708.75;2118629;82;20998;-72
2021/07/04 12:30:43;;;;;;;6.05;4.10;;;;;;;27.04;40.77;99703.77;2113397;82;21501;-73
2021/07/04 12:33:45;;;;;;;7.22;4.80;;;;;;;27.10;40.53;99693.09;2117731;82;21053;-73
2021/07/04 12:36:47;;;;;;;6.58;4.97;;;;;;;27.32;40.96;99685.02;2116946;81;21473;-73
2021/07/04 12:39:48;;;;;;;5.10;4.53;;;;;;;27.53;40.77;99682.32;2091063;83;21020;-70
2021/07/04 12:42:50;;;;;;;4.83;4.33;;;;;;;27.64;39.67;99686.55;2074533;83;21067;-71
2021/07/04 12:45:53;;;;;;;4.50;4.10;;;;;;;27.69;39.48;99675.59;2118565;82;24204;-70
2021/07/04 12:48:58;;;;;;;5.00;4.50;;;;;;;27.82;39.55;99681.46;2115148;82;21044;-73
2021/07/04 12:52:08;;;;;;;5.08;4.20;;;;;;;27.48;38.46;99679.65;2115576;82;20972;-75
2021/07/04 12:55:09;;;;;;;5.33;4.22;;;;;;;27.35;39.07;99672.19;2116417;82;21466;-73
2021/07/04 12:58:27;;;;;;;6.67;4.58;;;;;;;27.44;38.56;99668.52;2114151;81;21006;-69
2021/07/04 13:01:35;;;;;;;5.50;4.92;;;;;;;27.45;38.81;99665.24;2112958;82;21057;-78
2021/07/04 13:04:46;;;;;;;4.53;4.12;;;;;;;27.42;39.20;99669.91;2119572;82;22150;-75
2021/07/04 13:07:48;;;;;;;5.10;4.60;;;;;;;27.22;39.76;99660.85;2065342;85;21450;-72
2021/07/04 13:10:49;;;;;;;7.53;4.40;;;;;;;27.28;39.88;99669.78;2053225;84;21052;-75
2021/07/04 13:14:08;;;;;;;6.67;4.50;;;;;;;27.13;38.16;99653.58;2139487;82;21002;-73
2021/07/04 13:17:29;;;;;;;9.35;5.08;;;;;;;27.06;39.30;99653.93;2136543;80;21002;-66
2021/07/04 13:20:31;;;;;;;27.55;5.83;;;;;;;27.13;39.14;99648.14;2133368;81;21002;-72
2021/07/04 13:23:34;;;;;;;10.15;4.70;;;;;;;27.16;39.79;99642.95;2138190;81;21058;-73
2021/07/04 13:26:36;;;;;;;5.47;4.92;;;;;;;27.27;39.05;99639.58;2136268;82;21130;-76
2021/07/04 13:29:41;;;;;;;4.92;4.42;;;;;;;27.10;39.29;99645.44;2135500;82;21128;-71
2021/07/04 13:33:03;;;;;;;5.30;4.80;;;;;;;27.02;39.32;99646.87;2133523;81;21488;-71
2021/07/04 13:36:15;;;;;;;4.92;4.53;;;;;;;26.95;39.00;99638.23;2133406;82;21102;-72
2021/07/04 13:39:18;;;;;;;7.92;4.60;;;;;;;26.91;38.68;99643.17;2126801;81;21044;-74
2021/07/04 13:42:19;;;;;;;5.58;4.37;;;;;;;26.73;38.73;99637.90;2129381;81;20947;-68
2021/07/04 13:45:45;;;;;;;4.62;4.17;;;;;;;26.60;38.46;99638.80;2134230;82;20942;-68
2021/07/04 13:48:46;;;;;;;5.40;4.37;;;;;;;26.70;39.16;99634.39;2125932;82;21127;-70
2021/07/04 13:51:48;;;;;;;5.08;4.58;;;;;;;26.88;39.00;99634.22;2132934;82;20994;-67
2021/07/04 13:54:49;;;;;;;7.25;4.30;;;;;;;26.88;39.23;99632.30;2129736;81;20987;-69
2021/07/04 13:57:51;;;;;;;5.00;4.50;;;;;;;26.91;39.52;99626.84;2130644;82;21046;-70
2021/07/04 14:00:56;;;;;;;4.90;4.40;;;;;;;26.96;39.21;99625.44;2131977;82;20955;-76
2021/07/04 14:03:59;;;;;;;5.67;4.20;;;;;;;26.94;38.71;99624.34;2131788;82;21052;-76
2021/07/04 14:07:07;;;;;;;4.70;4.12;;;;;;;26.97;37.81;99616.16;2129053;81;21585;-75
2021/07/04 14:10:11;;;;;;;5.47;4.45;;;;;;;26.87;38.52;99617.64;2131173;82;20990;-74
2021/07/04 14:13:13;;;;;;;4.87;4.33;;;;;;;26.86;38.21;99620.08;2132988;82;21108;-75
2021/07/04 14:16:14;;;;;;;5.45;4.40;;;;;;;26.71;38.31;99615.59;2128863;81;21135;-72
2021/07/04 14:19:16;;;;;;;5.22;4.83;;;;;;;26.71;38.36;99613.68;2135729;81;21473;-78
2021/07/04 14:22:18;;;;;;;5.67;5.17;;;;;;;26.66;39.03;99611.00;2128044;82;21014;-74